createdAt,value
2018-08-11T00:00:31.815Z,4.00
2018-08-11T00:03:01.955Z,3.33
2018-08-11T00:05:29.764Z,2.87
2018-08-11T00:07:57.580Z,1.80
2018-08-11T00:10:25.309Z,4.30
2018-08-11T00:12:53.022Z,4.03
2018-08-11T00:15:21.095Z,6.80
2018-08-11T00:17:49.063Z,3.90
2018-08-11T00:20:18.822Z,4.60
2018-08-11T00:22:46.597Z,3.77
2018-08-11T00:25:15.389Z,3.80
2018-08-11T00:27:43.144Z,2.17
2018-08-11T00:30:12.627Z,4.03
2018-08-11T00:32:40.329Z,5.60
2018-08-11T00:35:09.451Z,3.37
2018-08-11T00:37:37.179Z,5.20
2018-08-11T00:40:10.292Z,5.13
2018-08-11T00:42:38.078Z,5.40
2018-08-11T00:45:07.633Z,4.33
2018-08-11T00:47:35.395Z,5.47
2018-08-11T00:50:04.179Z,5.63
2018-08-11T00:52:31.995Z,5.50
2018-08-11T00:54:59.702Z,5.57
2018-08-11T00:57:27.313Z,6.40
2018-08-11T00:59:54.934Z,6.50
2018-08-11T01:02:22.616Z,5.43
2018-08-11T01:04:50.164Z,3.87
2018-08-11T01:07:17.771Z,3.00
2018-08-11T01:09:45.443Z,3.50
2018-08-11T01:12:13.256Z,2.83
2018-08-11T01:14:40.936Z,2.70
2018-08-11T01:17:08.562Z,5.27
2018-08-11T01:19:36.193Z,1.70
2018-08-11T01:22:03.940Z,1.90
2018-08-11T01:24:31.416Z,2.00
2018-08-11T01:26:58.943Z,1.90
2018-08-11T01:29:26.491Z,0.90
2018-08-11T01:31:54.006Z,0.90
2018-08-11T01:34:21.688Z,1.40
2018-08-11T01:36:49.160Z,2.13
2018-08-11T01:39:16.855Z,1.13
2018-08-11T01:41:44.556Z,1.10
2018-08-11T01:44:12.330Z,1.80
2018-08-11T01:46:40.057Z,1.83
2018-08-11T01:49:07.650Z,1.93
2018-08-11T01:51:35.695Z,0.80
2018-08-11T01:54:03.432Z,1.00
2018-08-11T01:56:31.130Z,1.20
2018-08-11T01:58:58.811Z,0.83
2018-08-11T02:01:26.423Z,1.00
2018-08-11T02:03:54.196Z,0.90
2018-08-11T02:06:28.658Z,1.60
2018-08-11T02:08:56.459Z,0.80
2018-08-11T02:11:24.183Z,0.90
2018-08-11T02:13:51.876Z,1.33
2018-08-11T02:16:19.505Z,1.63
2018-08-11T02:18:47.137Z,0.90
2018-08-11T02:21:16.235Z,0.93
2018-08-11T02:23:43.970Z,4.63
2018-08-11T02:26:11.797Z,1.10
2018-08-11T02:28:39.631Z,1.00
2018-08-11T02:31:07.324Z,1.67
2018-08-11T02:33:34.890Z,0.90
2018-08-11T02:36:02.406Z,1.00
2018-08-11T02:38:29.993Z,1.20
2018-08-11T02:40:57.590Z,1.00
2018-08-11T02:43:25.095Z,1.53
2018-08-11T02:45:52.676Z,4.27
2018-08-11T02:48:20.326Z,1.27
2018-08-11T02:50:47.998Z,2.00
2018-08-11T02:53:15.722Z,1.00
2018-08-11T02:55:43.240Z,1.30
2018-08-11T02:58:10.826Z,1.63
2018-08-11T03:00:38.434Z,2.40
2018-08-11T03:03:06.000Z,1.47
2018-08-11T03:05:33.571Z,1.00
2018-08-11T03:08:01.078Z,1.10
2018-08-11T03:10:28.670Z,1.00
2018-08-11T03:12:56.252Z,1.30
2018-08-11T03:15:23.725Z,2.70
2018-08-11T03:17:51.418Z,1.70
2018-08-11T03:20:18.931Z,0.90
2018-08-11T03:22:46.642Z,1.20
2018-08-11T03:25:14.182Z,1.20
2018-08-11T03:27:41.679Z,1.00
2018-08-11T03:30:09.357Z,1.87
2018-08-11T03:32:36.954Z,3.17
2018-08-11T03:35:05.163Z,1.70
2018-08-11T03:37:32.886Z,1.70
2018-08-11T03:40:00.774Z,1.30
2018-08-11T03:42:28.267Z,1.10
2018-08-11T03:44:55.769Z,2.07
2018-08-11T03:47:23.665Z,1.10
2018-08-11T03:49:51.290Z,1.53
2018-08-11T03:52:18.784Z,3.37
2018-08-11T03:54:46.274Z,1.77
2018-08-11T03:57:14.116Z,1.80
2018-08-11T03:59:41.676Z,1.40
2018-08-11T04:02:09.206Z,1.40
2018-08-11T04:04:36.802Z,1.40
2018-08-11T04:07:04.496Z,1.30
2018-08-11T04:09:32.039Z,1.30
2018-08-11T04:11:59.603Z,1.40
2018-08-11T04:14:27.135Z,1.50
2018-08-11T04:16:54.628Z,1.30
2018-08-11T04:19:22.161Z,1.60
2018-08-11T04:21:49.742Z,1.50
2018-08-11T04:24:17.371Z,2.27
2018-08-11T04:26:45.080Z,1.57
2018-08-11T04:29:12.696Z,2.00
2018-08-11T04:31:40.427Z,2.17
2018-08-11T04:34:08.427Z,1.63
2018-08-11T04:36:36.094Z,1.90
2018-08-11T04:39:06.502Z,2.13
2018-08-11T04:41:34.251Z,1.73
2018-08-11T04:44:01.948Z,3.57
2018-08-11T04:46:29.648Z,1.87
2018-08-11T04:48:57.407Z,2.43
2018-08-11T04:51:25.085Z,2.50
2018-08-11T04:53:52.963Z,2.10
2018-08-11T04:56:20.783Z,2.67
2018-08-11T04:58:48.570Z,2.73
2018-08-11T05:01:16.429Z,2.30
2018-08-11T05:03:44.139Z,2.17
2018-08-11T05:06:13.116Z,2.57
2018-08-11T05:08:40.903Z,3.97
2018-08-11T05:11:08.897Z,2.67
2018-08-11T05:13:36.731Z,2.40
2018-08-11T05:16:04.518Z,2.60
2018-08-11T05:18:32.297Z,2.63
2018-08-11T05:21:00.094Z,3.60
2018-08-11T05:23:27.866Z,2.93
2018-08-11T05:25:55.503Z,2.83
2018-08-11T05:28:23.248Z,3.47
2018-08-11T05:30:51.137Z,2.50
2018-08-11T05:33:19.075Z,3.80
2018-08-11T05:35:46.851Z,2.90
2018-08-11T05:38:14.596Z,3.50
2018-08-11T05:40:42.514Z,2.83
2018-08-11T05:43:10.234Z,4.57
2018-08-11T05:45:37.903Z,3.40
2018-08-11T05:48:05.654Z,3.13
2018-08-11T05:50:33.312Z,3.07
2018-08-11T05:53:00.957Z,2.87
2018-08-11T05:55:29.044Z,3.47
2018-08-11T05:57:57.160Z,3.57
2018-08-11T06:00:26.090Z,3.83
2018-08-11T06:02:53.613Z,4.13
2018-08-11T06:05:21.195Z,15.80
2018-08-11T06:07:48.870Z,3.53
2018-08-11T06:10:16.454Z,5.07
2018-08-11T06:12:43.966Z,4.10
2018-08-11T06:15:11.698Z,3.20
2018-08-11T06:17:39.422Z,3.40
2018-08-11T06:20:08.162Z,2.90
2018-08-11T06:22:35.918Z,3.60
2018-08-11T06:25:04.514Z,3.97
2018-08-11T06:27:32.151Z,3.60
2018-08-11T06:29:59.920Z,3.53
2018-08-11T06:32:27.741Z,3.60
2018-08-11T06:34:55.688Z,3.40
2018-08-11T06:37:23.444Z,4.80
2018-08-11T06:39:51.112Z,3.53
2018-08-11T06:42:18.714Z,6.47
2018-08-11T06:44:46.279Z,4.23
2018-08-11T06:47:13.916Z,4.20
2018-08-11T06:49:41.508Z,3.70
2018-08-11T06:52:08.979Z,15.00
2018-08-11T06:54:36.501Z,3.60
2018-08-11T06:57:04.106Z,4.23
2018-08-11T06:59:33.062Z,4.07
2018-08-11T07:02:01.300Z,3.33
2018-08-11T07:04:28.866Z,4.80
2018-08-11T07:06:56.567Z,3.93
2018-08-11T07:09:24.003Z,4.70
2018-08-11T07:11:51.647Z,4.20
2018-08-11T07:14:19.148Z,4.80
2018-08-11T07:16:46.743Z,3.80
2018-08-11T07:19:14.233Z,4.77
2018-08-11T07:21:41.714Z,5.27
2018-08-11T07:24:09.246Z,4.57
2018-08-11T07:26:37.067Z,5.23
2018-08-11T07:29:04.928Z,4.30
2018-08-11T07:31:32.384Z,9.00
2018-08-11T07:33:59.789Z,4.67
2018-08-11T07:36:27.338Z,3.80
2018-08-11T07:38:54.999Z,5.83
2018-08-11T07:41:22.708Z,4.30
2018-08-11T07:43:50.224Z,4.60
2018-08-11T07:46:17.887Z,4.80
2018-08-11T07:48:45.457Z,3.40
2018-08-11T07:51:13.056Z,4.63
2018-08-11T07:53:40.914Z,7.13
2018-08-11T07:56:08.487Z,4.20
2018-08-11T07:58:36.029Z,3.50
2018-08-11T08:01:03.666Z,5.20
2018-08-11T08:03:31.108Z,3.00
2018-08-11T08:05:59.228Z,3.43
2018-08-11T08:08:26.678Z,5.47
2018-08-11T08:10:54.211Z,3.43
2018-08-11T08:13:21.725Z,4.03
2018-08-11T08:15:49.188Z,3.50
2018-08-11T08:18:16.695Z,3.70
2018-08-11T08:20:44.333Z,3.50
2018-08-11T08:23:11.922Z,5.80
2018-08-11T08:25:39.512Z,3.73
2018-08-11T08:28:06.939Z,3.17
2018-08-11T08:30:34.885Z,3.30
2018-08-11T08:33:02.435Z,4.80
2018-08-11T08:35:29.999Z,3.33
2018-08-11T08:37:57.494Z,3.43
2018-08-11T08:40:24.989Z,2.90
2018-08-11T08:42:52.519Z,3.47
2018-08-11T08:45:20.296Z,4.63
2018-08-11T08:47:47.861Z,4.97
2018-08-11T08:50:15.285Z,14.93
2018-08-11T08:52:42.786Z,16.30
2018-08-11T08:55:10.273Z,10.30
2018-08-11T08:57:37.781Z,15.60
2018-08-11T09:00:05.424Z,4.67
2018-08-11T09:02:33.064Z,2.83
2018-08-11T09:05:00.582Z,3.80
2018-08-11T09:07:28.600Z,1.70
2018-08-11T09:09:56.212Z,2.03
2018-08-11T09:12:23.745Z,2.00
2018-08-11T09:14:51.471Z,3.00
2018-08-11T09:17:19.145Z,4.10
2018-08-11T09:19:46.788Z,3.30
2018-08-11T09:22:14.425Z,1.70
2018-08-11T09:24:41.948Z,3.60
2018-08-11T09:27:10.099Z,4.07
2018-08-11T09:29:37.748Z,1.90
2018-08-11T09:32:05.950Z,1.40
2018-08-11T09:34:33.708Z,1.30
2018-08-11T09:37:01.510Z,4.73
2018-08-11T09:39:29.503Z,2.93
2018-08-11T09:41:58.276Z,1.47
2018-08-11T09:44:27.323Z,4.50
2018-08-11T09:46:55.784Z,2.23
2018-08-11T09:49:24.259Z,2.60
2018-08-11T09:51:52.017Z,1.50
2018-08-11T09:54:19.712Z,4.17
2018-08-11T09:56:47.293Z,5.47
2018-08-11T09:59:14.721Z,5.37
2018-08-11T10:01:43.447Z,2.60
2018-08-11T10:04:11.596Z,1.60
2018-08-11T10:06:39.063Z,2.43
2018-08-11T10:09:08.259Z,4.83
2018-08-11T10:11:35.832Z,2.67
2018-08-11T10:14:03.379Z,1.43
2018-08-11T10:16:30.885Z,2.30
2018-08-11T10:18:58.576Z,3.10
2018-08-11T10:21:26.047Z,3.00
2018-08-11T10:23:53.603Z,1.47
2018-08-11T10:26:21.067Z,1.73
2018-08-11T10:28:48.775Z,3.73
2018-08-11T10:31:16.274Z,3.00
2018-08-11T10:33:43.812Z,2.90
2018-08-11T10:36:12.006Z,1.63
2018-08-11T10:38:39.655Z,1.47
2018-08-11T10:41:07.275Z,3.00
2018-08-11T10:43:34.999Z,3.03
2018-08-11T10:46:02.707Z,2.00
2018-08-11T10:48:30.410Z,1.30
2018-08-11T10:50:57.937Z,3.03
2018-08-11T10:53:25.469Z,1.77
2018-08-11T10:55:53.037Z,2.10
2018-08-11T10:58:20.518Z,3.10
2018-08-11T11:00:48.132Z,1.37
2018-08-11T11:03:15.858Z,3.00
2018-08-11T11:05:43.702Z,1.77
2018-08-11T11:08:11.890Z,2.17
2018-08-11T11:10:39.389Z,1.00
2018-08-11T11:13:07.309Z,1.30
2018-08-11T11:15:34.836Z,1.87
2018-08-11T11:18:02.428Z,2.83
2018-08-11T11:20:30.234Z,1.13
2018-08-11T11:22:59.026Z,1.90
2018-08-11T11:25:26.660Z,1.60
2018-08-11T11:27:54.195Z,2.20
2018-08-11T11:30:21.806Z,1.30
2018-08-11T11:32:49.391Z,1.70
2018-08-11T11:35:17.145Z,2.17
2018-08-11T11:37:44.772Z,1.10
2018-08-11T11:40:12.418Z,1.87
2018-08-11T11:42:40.110Z,2.10
2018-08-11T11:45:07.716Z,1.40
2018-08-11T11:47:35.346Z,0.80
2018-08-11T11:50:02.992Z,1.93
2018-08-11T11:52:30.593Z,4.73
2018-08-11T11:54:58.262Z,1.30
2018-08-11T11:57:25.858Z,0.70
2018-08-11T11:59:53.443Z,2.00
2018-08-11T12:02:21.108Z,1.17
2018-08-11T12:04:48.721Z,1.90
2018-08-11T12:07:16.318Z,2.77
2018-08-11T12:09:43.814Z,1.00
2018-08-11T12:12:11.383Z,2.47
2018-08-11T12:14:39.365Z,6.33
2018-08-11T12:17:06.902Z,3.40
2018-08-11T12:19:34.561Z,2.80
2018-08-11T12:22:02.061Z,2.80
2018-08-11T12:24:29.765Z,2.07
2018-08-11T12:26:57.408Z,1.93
2018-08-11T12:29:25.761Z,2.13
2018-08-11T12:31:53.428Z,1.13
2018-08-11T12:34:21.063Z,1.37
2018-08-11T12:36:48.734Z,3.73
2018-08-11T12:39:16.379Z,1.30
2018-08-11T12:41:43.867Z,2.53
2018-08-11T12:44:11.632Z,1.60
2018-08-11T12:46:39.183Z,1.13
2018-08-11T12:49:06.607Z,2.47
2018-08-11T12:51:34.307Z,1.73
2018-08-11T12:54:01.859Z,1.30
2018-08-11T12:56:29.367Z,3.40
2018-08-11T12:58:56.947Z,2.40
2018-08-11T13:01:24.521Z,2.30
2018-08-11T13:03:51.973Z,3.47
2018-08-11T13:06:19.529Z,1.77
2018-08-11T13:08:46.992Z,2.30
2018-08-11T13:11:14.552Z,5.10
2018-08-11T13:13:42.086Z,4.00
2018-08-11T13:16:09.583Z,4.43
2018-08-11T13:18:37.063Z,3.00
2018-08-11T13:21:04.551Z,2.17
2018-08-11T13:23:36.301Z,1.97
2018-08-11T13:26:03.966Z,2.07
2018-08-11T13:28:31.363Z,3.17
2018-08-11T13:30:58.858Z,5.13
2018-08-11T13:33:44.368Z,3.73
2018-08-11T13:36:11.884Z,1.70
2018-08-11T13:38:39.448Z,1.20
2018-08-11T13:41:07.224Z,2.20
2018-08-11T13:43:34.662Z,2.90
2018-08-11T13:46:26.136Z,4.20
2018-08-11T13:48:53.836Z,3.70
2018-08-11T13:51:21.396Z,3.63
2018-08-11T13:53:49.022Z,2.37
2018-08-11T13:56:16.611Z,2.27
2018-08-11T13:58:44.158Z,1.63
2018-08-11T14:01:11.650Z,3.03
2018-08-11T14:03:39.152Z,1.83
2018-08-11T14:06:06.767Z,3.23
2018-08-11T14:08:34.339Z,2.57
2018-08-11T14:11:01.895Z,1.93
2018-08-11T14:13:29.375Z,2.10
2018-08-11T14:15:56.938Z,2.20
2018-08-11T14:18:24.896Z,1.40
2018-08-11T14:20:52.392Z,1.27
2018-08-11T14:23:19.863Z,2.57
2018-08-11T14:25:47.505Z,2.20
2018-08-11T14:28:15.008Z,1.30
2018-08-11T14:30:42.537Z,1.57
2018-08-11T14:33:10.033Z,2.30
2018-08-11T14:35:37.551Z,1.33
2018-08-11T14:38:05.125Z,1.40
2018-08-11T14:40:32.629Z,2.73
2018-08-11T14:43:00.068Z,3.37
2018-08-11T14:45:27.666Z,2.97
2018-08-11T14:47:55.161Z,3.07
2018-08-11T14:50:22.770Z,1.40
2018-08-11T14:52:50.430Z,5.50
2018-08-11T14:55:18.386Z,2.50
2018-08-11T14:57:46.248Z,1.50
2018-08-11T15:00:13.751Z,3.03
2018-08-11T15:02:41.392Z,1.90
2018-08-11T15:05:09.465Z,2.60
2018-08-11T15:07:37.620Z,1.00
2018-08-11T15:10:11.046Z,1.30
2018-08-11T15:12:38.605Z,1.80
2018-08-11T15:15:07.293Z,1.87
2018-08-11T15:17:34.805Z,1.10
2018-08-11T15:20:02.484Z,2.43
2018-08-11T15:22:31.259Z,1.93
2018-08-11T15:24:58.736Z,2.83
2018-08-11T15:27:26.355Z,3.10
2018-08-11T15:29:55.701Z,3.67
2018-08-11T15:32:46.353Z,3.70
2018-08-11T15:35:14.336Z,4.50
2018-08-11T15:37:41.986Z,3.23
2018-08-11T15:40:12.738Z,1.33
2018-08-11T15:42:40.681Z,1.93
2018-08-11T15:45:08.227Z,2.77
2018-08-11T15:47:36.221Z,3.90
2018-08-11T15:50:04.200Z,4.80
2018-08-11T15:52:31.955Z,2.93
2018-08-11T15:54:59.451Z,2.70
2018-08-11T15:57:27.028Z,4.03
2018-08-11T15:59:54.575Z,4.27
2018-08-11T16:02:22.039Z,2.97
2018-08-11T16:04:49.605Z,3.70
2018-08-11T16:07:17.051Z,2.43
2018-08-11T16:09:44.488Z,1.93
2018-08-11T16:12:12.019Z,3.00
2018-08-11T16:14:39.516Z,2.27
2018-08-11T16:17:07.298Z,3.57
2018-08-11T16:19:35.056Z,2.67
2018-08-11T16:22:02.665Z,2.17
2018-08-11T16:24:30.176Z,2.17
2018-08-11T16:26:57.748Z,2.30
2018-08-11T16:29:25.265Z,2.87
2018-08-11T16:31:52.751Z,2.30
2018-08-11T16:34:20.255Z,3.03
2018-08-11T16:36:47.751Z,1.50
2018-08-11T16:39:15.325Z,1.80
2018-08-11T16:41:42.840Z,3.00
2018-08-11T16:44:10.288Z,4.70
2018-08-11T16:46:37.853Z,2.57
2018-08-11T16:49:05.814Z,2.80
2018-08-11T16:51:33.462Z,3.00
2018-08-11T16:54:00.930Z,2.77
2018-08-11T16:56:28.385Z,2.93
2018-08-11T16:58:55.887Z,1.40
2018-08-11T17:01:23.551Z,2.40
2018-08-11T17:03:51.064Z,3.30
2018-08-11T17:06:18.836Z,1.90
2018-08-11T17:08:46.431Z,1.83
2018-08-11T17:11:13.936Z,1.80
2018-08-11T17:13:41.594Z,2.73
2018-08-11T17:16:09.294Z,3.27
2018-08-11T17:18:36.903Z,2.93
2018-08-11T17:21:04.477Z,1.20
2018-08-11T17:23:32.479Z,1.30
2018-08-11T17:26:00.077Z,2.27
2018-08-11T17:28:27.624Z,3.03
2018-08-11T17:30:55.142Z,2.70
2018-08-11T17:33:22.836Z,2.37
2018-08-11T17:35:50.313Z,2.30
2018-08-11T17:38:17.870Z,3.10
2018-08-11T17:40:45.352Z,3.50
2018-08-11T17:43:12.806Z,2.20
2018-08-11T17:45:40.270Z,2.60
2018-08-11T17:48:07.793Z,2.27
2018-08-11T17:50:35.300Z,2.03
2018-08-11T17:53:02.836Z,4.53
2018-08-11T17:55:30.591Z,4.63
2018-08-11T17:57:58.084Z,1.70
2018-08-11T18:00:25.790Z,3.47
2018-08-11T18:02:53.239Z,3.80
2018-08-11T18:05:20.687Z,2.73
2018-08-11T18:07:48.185Z,4.97
2018-08-11T18:10:15.634Z,2.97
2018-08-11T18:12:43.192Z,4.53
2018-08-11T18:15:11.260Z,2.63
2018-08-11T18:17:38.809Z,5.00
2018-08-11T18:20:06.501Z,2.33
2018-08-11T18:22:34.044Z,6.17
2018-08-11T18:25:01.653Z,3.87
2018-08-11T18:27:29.308Z,2.30
2018-08-11T18:29:56.950Z,1.50
2018-08-11T18:32:24.796Z,1.80
2018-08-11T18:34:52.362Z,2.37
2018-08-11T18:37:23.943Z,3.70
2018-08-11T18:39:51.916Z,2.60
2018-08-11T18:42:19.710Z,3.40
2018-08-11T18:44:50.955Z,5.27
2018-08-11T18:47:18.547Z,3.03
2018-08-11T18:49:46.979Z,2.60
2018-08-11T18:52:14.591Z,5.07
2018-08-11T18:54:42.120Z,1.60
2018-08-11T18:57:09.671Z,4.60
2018-08-11T18:59:37.157Z,5.00
2018-08-11T19:02:04.818Z,2.13
2018-08-11T19:04:32.394Z,6.60
2018-08-11T19:06:59.851Z,2.90
2018-08-11T19:09:27.341Z,3.10
2018-08-11T19:11:54.875Z,2.43
2018-08-11T19:14:22.696Z,6.60
2018-08-11T19:16:50.360Z,2.40
2018-08-11T19:19:17.848Z,2.70
2018-08-11T19:21:45.450Z,2.80
2018-08-11T19:24:13.012Z,3.23
2018-08-11T19:26:40.633Z,3.53
2018-08-11T19:29:08.223Z,2.70
2018-08-11T19:31:35.896Z,3.40
2018-08-11T19:34:03.452Z,3.27
2018-08-11T19:36:30.968Z,4.40
2018-08-11T19:38:58.503Z,4.43
2018-08-11T19:41:26.100Z,3.53
2018-08-11T19:43:56.776Z,4.07
2018-08-11T19:46:24.441Z,3.57
2018-08-11T19:48:52.105Z,4.43
2018-08-11T19:51:19.707Z,2.33
2018-08-11T19:53:47.218Z,3.60
2018-08-11T19:56:14.768Z,11.17
2018-08-11T19:58:42.323Z,2.30
2018-08-11T20:01:10.021Z,3.10
2018-08-11T20:03:37.771Z,5.20
2018-08-11T20:06:07.178Z,3.47
2018-08-11T20:08:35.277Z,3.30
2018-08-11T20:11:03.854Z,3.13
2018-08-11T20:13:31.381Z,3.50
2018-08-11T20:15:58.928Z,3.10
2018-08-11T20:18:26.439Z,2.80
2018-08-11T20:20:54.004Z,3.87
2018-08-11T20:23:21.524Z,4.57
2018-08-11T20:25:49.116Z,3.03
2018-08-11T20:28:17.612Z,5.63
2018-08-11T20:30:45.376Z,5.00
2018-08-11T20:33:13.026Z,3.50
2018-08-11T20:35:40.654Z,4.63
2018-08-11T20:38:08.248Z,8.27
2018-08-11T20:40:35.892Z,4.83
2018-08-11T20:43:03.660Z,3.50
2018-08-11T20:45:31.150Z,3.43
2018-08-11T20:47:58.732Z,3.17
2018-08-11T20:50:26.753Z,5.23
2018-08-11T20:52:54.337Z,5.13
2018-08-11T20:55:21.859Z,5.73
2018-08-11T20:57:49.420Z,4.90
2018-08-11T21:00:16.890Z,5.13
2018-08-11T21:02:44.376Z,4.87
2018-08-11T21:05:13.224Z,5.80
2018-08-11T21:07:40.744Z,4.60
2018-08-11T21:10:11.233Z,4.90
2018-08-11T21:12:39.140Z,6.33
2018-08-11T21:15:07.249Z,4.70
2018-08-11T21:17:35.244Z,8.20
2018-08-11T21:20:03.373Z,5.57
2018-08-11T21:22:30.896Z,5.20
2018-08-11T21:24:58.380Z,7.00
2018-08-11T21:27:26.036Z,6.67
2018-08-11T21:29:53.976Z,8.30
2018-08-11T21:32:21.528Z,7.33
2018-08-11T21:34:49.778Z,7.83
2018-08-11T21:37:17.245Z,7.93
2018-08-11T21:39:44.767Z,6.60
2018-08-11T21:42:12.332Z,6.97
2018-08-11T21:44:40.026Z,6.03
2018-08-11T21:47:07.555Z,6.43
2018-08-11T21:49:35.158Z,4.73
2018-08-11T21:52:02.824Z,6.30
2018-08-11T21:54:30.287Z,6.43
2018-08-11T21:56:57.829Z,5.90
2018-08-11T21:59:25.371Z,6.43
2018-08-11T22:01:52.968Z,6.40
2018-08-11T22:04:20.576Z,9.27
2018-08-11T22:06:48.499Z,6.20
2018-08-11T22:09:15.978Z,5.60
2018-08-11T22:11:43.446Z,5.40
2018-08-11T22:14:11.028Z,6.10
2018-08-11T22:16:38.521Z,5.80
2018-08-11T22:19:06.106Z,4.90
2018-08-11T22:21:33.652Z,8.10
2018-08-11T22:24:01.168Z,6.53
2018-08-11T22:26:28.612Z,5.30
2018-08-11T22:28:56.291Z,6.00
2018-08-11T22:31:23.879Z,6.00
2018-08-11T22:33:51.729Z,5.50
2018-08-11T22:36:19.311Z,7.33
2018-08-11T22:38:46.823Z,5.50
2018-08-11T22:41:14.399Z,7.37
2018-08-11T22:43:41.906Z,7.30
2018-08-11T22:46:10.074Z,6.00
2018-08-11T22:48:37.600Z,6.50
2018-08-11T22:51:05.285Z,6.00
2018-08-11T22:53:32.855Z,5.63
2018-08-11T22:56:00.380Z,7.07
2018-08-11T22:58:27.932Z,6.13
2018-08-11T23:00:55.563Z,6.90
2018-08-11T23:03:23.139Z,8.80
2018-08-11T23:05:50.647Z,9.20
2018-08-11T23:08:18.131Z,6.17
2018-08-11T23:10:45.595Z,6.13
2018-08-11T23:13:13.326Z,5.67
2018-08-11T23:15:41.023Z,6.03
2018-08-11T23:18:08.499Z,5.95
2018-08-11T23:20:36.096Z,6.27
2018-08-11T23:23:03.646Z,6.80
2018-08-11T23:25:31.170Z,6.20
2018-08-11T23:27:58.705Z,7.27
2018-08-11T23:30:26.253Z,6.50
2018-08-11T23:32:53.867Z,6.17
2018-08-11T23:35:21.402Z,6.73
2018-08-11T23:37:48.965Z,7.27
2018-08-11T23:40:16.502Z,6.60
2018-08-11T23:42:44.102Z,7.00
2018-08-11T23:45:14.904Z,12.03
2018-08-11T23:47:42.597Z,7.70
2018-08-11T23:50:11.181Z,9.10
2018-08-11T23:52:39.410Z,7.40
2018-08-11T23:55:08.042Z,8.13
2018-08-11T23:57:36.176Z,7.30
